Time;durP1;ratioP1;P1;durP2;ratioP2;P2;SDS_P1;SDS_P2;PMS_P1;PMS_P2;Temp;Humidity;BMP_temperature;BMP_pressure;BME280_temperature;BME280_humidity;BME280_pressure;Samples;Min_cycle;Max_cycle;Signal;HPM_P1;HPM_P2
2021/07/28 00:02:20;;;;;;;;;;;;;;;24.05;63.04;100963.66;5023437;28;1809;-40
2021/07/28 00:04:46;;;;;;;;;;;;;;;24.02;63.39;100972.97;5019866;28;1709;-40
2021/07/28 00:07:12;;;;;;;;;;;;;;;24.08;63.01;100964.19;5024308;28;1793;-41
2021/07/28 00:09:39;;;;;;;;;;;;;;;24.07;62.92;100962.50;5029554;28;1823;-41
2021/07/28 00:12:06;;;;;;;;;;;;;;;24.11;62.79;100954.91;5021249;28;1876;-41
2021/07/28 00:14:32;;;;;;;;;;;;;;;24.06;62.36;100968.09;5022139;28;1835;-41
2021/07/28 00:17:00;;;;;;;;;;;;;;;24.04;62.54;100968.25;5024589;28;2179;-41
2021/07/28 00:19:31;;;;;;;;;;;;;;;24.02;62.69;100954.88;5023038;28;1906;-41
2021/07/28 00:24:41;;;;;;;;;;;;;;;24.01;62.80;100963.16;5021082;28;832;-40
2021/07/28 00:27:08;;;;;;;;;;;;;;;24.01;63.05;100960.44;5018861;28;1753;-41
2021/07/28 00:29:36;;;;;;;;;;;;;;;23.98;62.50;100950.81;5021745;28;1727;-41
2021/07/28 00:32:03;;;;;;;;;;;;;;;23.97;63.15;100959.09;5022153;28;1810;-41
2021/07/28 00:34:31;;;;;;;;;;;;;;;23.95;62.45;100955.69;5023830;28;1801;-42
2021/07/28 00:36:57;;;;;;;;;;;;;;;23.83;63.04;100952.44;5020180;28;1806;-41
2021/07/28 00:39:24;;;;;;;;;;;;;;;23.90;62.71;100952.66;5022593;28;1910;-41
2021/07/28 00:41:50;;;;;;;;;;;;;;;23.93;62.31;100965.81;5031044;28;2362;-40
2021/07/28 00:44:17;;;;;;;;;;;;;;;23.94;63.06;100954.03;5023183;28;2468;-41
2021/07/28 00:46:43;;;;;;;;;;;;;;;23.94;62.28;100970.22;5022289;28;1802;-41
2021/07/28 00:49:12;;;;;;;;;;;;;;;23.95;62.85;100969.22;5025602;28;1578;-41
2021/07/28 00:51:41;;;;;;;;;;;;;;;23.94;62.71;100964.84;5024411;28;1535;-41
2021/07/28 00:54:08;;;;;;;;;;;;;;;23.98;62.27;100958.94;5025158;28;1772;-41
2021/07/28 00:56:35;;;;;;;;;;;;;;;23.96;62.28;100955.53;5015194;28;2373;-41
2021/07/28 00:59:02;;;;;;;;;;;;;;;23.91;62.89;100954.34;5024036;28;1801;-41
2021/07/28 01:01:28;;;;;;;;;;;;;;;23.93;62.34;100942.34;5022709;28;1329;-41
2021/07/28 01:03:57;;;;;;;;;;;;;;;23.91;62.62;100960.56;5030818;28;1791;-41
2021/07/28 01:06:25;;;;;;;;;;;;;;;23.87;62.50;100951.13;5018756;28;1695;-41
2021/07/28 01:08:53;;;;;;;;;;;;;;;23.86;62.47;100954.84;5032797;28;1835;-41
2021/07/28 01:11:23;;;;;;;;;;;;;;;23.85;62.85;100947.72;5022192;28;1147;-40
2021/07/28 01:13:50;;;;;;;;;;;;;;;23.86;62.63;100946.75;5021228;28;1942;-40
2021/07/28 01:16:19;;;;;;;;;;;;;;;23.89;61.94;100941.00;5021166;28;1961;-41
2021/07/28 01:18:45;;;;;;;;;;;;;;;23.91;61.85;100943.53;5027470;28;1899;-41
2021/07/28 01:21:12;;;;;;;;;;;;;;;23.86;62.62;100944.03;5023770;28;1977;-40
2021/07/28 01:23:41;;;;;;;;;;;;;;;23.88;62.47;100954.69;5025326;28;1758;-41
2021/07/28 01:26:09;;;;;;;;;;;;;;;23.90;61.87;100941.84;5018316;28;1046;-41
2021/07/28 01:28:36;;;;;;;;;;;;;;;23.80;62.70;100953.63;5021240;28;2026;-41
2021/07/28 01:31:04;;;;;;;;;;;;;;;23.79;62.43;100940.28;5021423;28;1851;-41
2021/07/28 01:33:31;;;;;;;;;;;;;;;23.78;62.48;100947.53;5023100;28;1904;-41
2021/07/28 01:36:01;;;;;;;;;;;;;;;23.81;62.14;100939.13;5031489;28;1806;-41
2021/07/28 01:38:29;;;;;;;;;;;;;;;23.79;62.17;100942.97;5026755;28;2026;-41
2021/07/28 01:40:57;;;;;;;;;;;;;;;23.84;61.90;100947.91;5017272;28;1907;-40
2021/07/28 01:43:24;;;;;;;;;;;;;;;23.78;62.01;100946.72;5018304;28;1977;-41
2021/07/28 01:45:51;;;;;;;;;;;;;;;23.75;61.96;100939.72;5027042;28;1859;-41
2021/07/28 01:48:17;;;;;;;;;;;;;;;23.75;61.56;100947.81;5021715;28;1777;-41
2021/07/28 01:50:44;;;;;;;;;;;;;;;23.75;61.86;100947.81;5025507;28;1729;-41
2021/07/28 01:53:10;;;;;;;;;;;;;;;23.75;61.59;100953.22;5022757;28;1873;-41
2021/07/28 01:55:37;;;;;;;;;;;;;;;23.71;61.69;100938.34;5026903;28;995;-40
2021/07/28 01:58:05;;;;;;;;;;;;;;;23.73;61.64;100955.25;5023429;28;1921;-41
2021/07/28 05:03:01;;;;;;;;;;;;;;;23.82;61.23;100957.00;4624722;26;2337;-40
2021/07/28 05:05:28;;;;;;;;;;;;;;;23.89;61.12;100959.06;5023578;28;1628;-40
2021/07/28 05:07:54;;;;;;;;;;;;;;;23.97;60.60;100953.69;5019890;28;1837;-40
2021/07/28 05:10:22;;;;;;;;;;;;;;;23.95;60.63;100955.69;5015465;28;1629;-40
2021/07/28 05:12:48;;;;;;;;;;;;;;;23.92;61.17;100950.66;5023034;28;1801;-40
2021/07/28 05:15:15;;;;;;;;;;;;;;;23.93;61.14;100941.50;5019059;28;1681;-40
2021/07/28 05:17:41;;;;;;;;;;;;;;;24.05;60.55;100948.31;5013942;28;1543;-40
2021/07/28 05:20:10;;;;;;;;;;;;;;;23.95;60.85;100950.31;5015778;28;1968;-40
2021/07/28 05:22:36;;;;;;;;;;;;;;;23.97;61.24;100956.38;5015858;28;1551;-40
2021/07/28 05:25:04;;;;;;;;;;;;;;;24.03;60.89;100950.31;5013854;28;1363;-40
2021/07/28 05:27:30;;;;;;;;;;;;;;;24.15;60.87;100957.13;5017621;28;2271;-40
2021/07/28 05:29:58;;;;;;;;;;;;;;;24.20;61.55;100959.34;5025780;28;1646;-40
2021/07/28 05:32:27;;;;;;;;;;;;;;;24.29;61.41;100963.75;5030635;28;1667;-40
2021/07/28 05:34:54;;;;;;;;;;;;;;;24.31;61.47;100966.25;5032301;28;1849;-40
2021/07/28 05:37:35;;;;;;;;;;;;;;;24.34;60.54;100971.34;5022078;28;1882;-40
2021/07/28 05:40:02;;;;;;;;;;;;;;;24.42;61.04;100972.19;5018607;28;1918;-39
2021/07/28 05:42:29;;;;;;;;;;;;;;;24.46;61.05;100969.19;5021937;28;1610;-40
2021/07/28 05:45:02;;;;;;;;;;;;;;;24.46;61.58;100970.03;5023655;28;1703;-40
2021/07/28 05:47:28;;;;;;;;;;;;;;;24.50;61.79;100967.84;5016519;28;1578;-40
2021/07/28 05:49:55;;;;;;;;;;;;;;;24.53;60.91;100981.03;5021387;28;1445;-40
2021/07/28 05:52:23;;;;;;;;;;;;;;;24.57;60.51;100975.16;5018760;28;1894;-40
2021/07/28 05:54:49;;;;;;;;;;;;;;;24.67;61.45;100966.88;5024200;28;1883;-40
2021/07/28 05:57:15;;;;;;;;;;;;;;;24.70;61.82;100971.09;5017190;28;3098;-40
2021/07/28 05:59:42;;;;;;;;;;;;;;;24.72;62.13;100960.94;5028615;28;1764;-40
2021/07/28 06:02:08;;;;;;;;;;;;;;;24.77;61.29;100961.28;5021402;28;1903;-39
2021/07/28 06:04:35;;;;;;;;;;;;;;;24.84;61.29;100975.81;5016690;28;1772;-40
2021/07/28 06:07:01;;;;;;;;;;;;;;;24.85;61.80;100953.19;5024046;28;1776;-40
2021/07/28 06:09:29;;;;;;;;;;;;;;;24.38;61.55;100961.91;5018661;28;1697;-39
2021/07/28 06:11:56;;;;;;;;;;;;;;;23.39;61.20;100956.09;5024445;28;2036;-39
2021/07/28 06:14:22;;;;;;;;;;;;;;;22.79;61.81;100961.38;5019462;28;1878;-40
2021/07/28 06:16:49;;;;;;;;;;;;;;;22.50;60.85;100964.31;5030339;28;1520;-40
2021/07/28 06:19:15;;;;;;;;;;;;;;;22.23;60.61;100958.81;5022672;28;1809;-39
2021/07/28 06:21:42;;;;;;;;;;;;;;;22.01;60.84;100970.00;5032000;28;1969;-39
2021/07/28 06:24:08;;;;;;;;;;;;;;;21.93;59.71;100948.38;5025519;28;1115;-39
2021/07/28 06:26:36;;;;;;;;;;;;;;;21.87;59.00;100959.75;5018273;28;1812;-39
2021/07/28 06:29:02;;;;;;;;;;;;;;;21.78;59.23;100959.63;5026197;28;1944;-39
2021/07/28 06:31:29;;;;;;;;;;;;;;;21.68;58.25;100972.28;5025545;28;1701;-40
2021/07/28 06:33:55;;;;;;;;;;;;;;;21.71;58.33;100963.94;5025342;28;1763;-39
2021/07/28 06:36:22;;;;;;;;;;;;;;;21.68;58.45;100950.75;5026009;28;1156;-39
2021/07/28 06:38:48;;;;;;;;;;;;;;;21.67;58.38;100959.00;5026317;28;1880;-39
2021/07/28 06:41:15;;;;;;;;;;;;;;;21.59;58.39;100951.66;5026406;28;1981;-39
2021/07/28 06:43:43;;;;;;;;;;;;;;;21.50;58.46;100950.69;5024227;28;1699;-39
2021/07/28 06:46:09;;;;;;;;;;;;;;;21.53;57.91;100954.94;5025640;28;1702;-39
2021/07/28 06:48:35;;;;;;;;;;;;;;;21.56;57.60;100968.91;5023585;28;1908;-40
2021/07/28 06:51:02;;;;;;;;;;;;;;;21.44;58.05;100952.13;5020479;28;1090;-39
2021/07/28 06:53:28;;;;;;;;;;;;;;;21.47;56.99;100947.44;5026455;28;1782;-40
2021/07/28 06:55:55;;;;;;;;;;;;;;;21.39;57.48;100949.00;5014655;28;1943;-39
2021/07/28 06:58:21;;;;;;;;;;;;;;;21.45;56.81;100945.75;5026251;28;995;-39
2021/07/28 07:00:49;;;;;;;;;;;;;;;21.61;57.36;100936.22;5019510;28;1989;-40
2021/07/28 07:03:16;;;;;;;;;;;;;;;21.70;57.78;100948.75;5031013;28;1406;-39
2021/07/28 07:05:43;;;;;;;;;;;;;;;21.81;57.74;100940.50;5022010;28;1796;-39
2021/07/28 07:08:09;;;;;;;;;;;;;;;21.88;57.76;100929.97;5028163;28;1991;-39
2021/07/28 07:10:36;;;;;;;;;;;;;;;21.92;58.10;100939.44;5024079;28;1726;-39
2021/07/28 07:13:05;;;;;;;;;;;;;;;21.95;58.00;100939.13;5023768;28;1793;-39
2021/07/28 07:15:31;;;;;;;;;;;;;;;21.95;58.27;100941.00;5023939;28;1752;-40
2021/07/28 07:17:59;;;;;;;;;;;;;;;21.98;58.51;100937.97;5024434;28;1848;-38
2021/07/28 07:20:25;;;;;;;;;;;;;;;22.04;58.94;100945.44;5022741;28;1911;-40
2021/07/28 07:22:52;;;;;;;;;;;;;;;21.97;58.73;100939.00;5019537;28;1927;-40
2021/07/28 07:25:20;;;;;;;;;;;;;;;22.01;59.07;100941.22;5029421;28;1051;-39
2021/07/28 07:27:46;;;;;;;;;;;;;;;21.95;59.31;100941.84;5023223;28;1714;-39
2021/07/28 07:30:13;;;;;;;;;;;;;;;21.97;59.55;100947.91;5023331;28;1848;-39
2021/07/28 07:32:39;;;;;;;;;;;;;;;22.00;59.21;100953.00;5024603;28;1733;-39
2021/07/28 07:35:08;;;;;;;;;;;;;;;22.03;59.67;100947.31;5022701;28;1796;-39
2021/07/28 07:37:34;;;;;;;;;;;;;;;22.06;59.40;100965.00;5025786;28;1903;-39
2021/07/28 07:40:01;;;;;;;;;;;;;;;21.99;59.81;100945.91;5020120;28;2329;-39
2021/07/28 07:42:27;;;;;;;;;;;;;;;21.97;60.19;100942.53;5024558;28;1910;-39
2021/07/28 07:44:57;;;;;;;;;;;;;;;22.05;59.83;100936.41;5023423;28;1752;-40
2021/07/28 07:47:23;;;;;;;;;;;;;;;21.95;59.66;100922.97;5023068;28;1929;-41
2021/07/28 07:49:50;;;;;;;;;;;;;;;22.02;59.54;100944.75;5022284;28;1087;-39
2021/07/28 07:52:18;;;;;;;;;;;;;;;22.00;59.89;100944.06;5027815;28;1874;-40
2021/07/28 07:54:44;;;;;;;;;;;;;;;22.01;60.09;100937.69;5022181;28;1142;-39
2021/07/28 07:57:11;;;;;;;;;;;;;;;22.04;59.81;100937.38;5018709;28;1842;-40
2021/07/28 07:59:37;;;;;;;;;;;;;;;21.97;60.32;100949.75;5024510;28;1756;-39
2021/07/28 08:02:04;;;;;;;;;;;;;;;21.98;59.90;100946.91;5022206;28;1906;-40
2021/07/28 08:04:30;;;;;;;;;;;;;;;22.07;59.71;100947.84;5016388;28;1740;-39
2021/07/28 08:06:57;;;;;;;;;;;;;;;22.07;59.78;100947.03;5023695;28;1788;-39
2021/07/28 08:09:24;;;;;;;;;;;;;;;22.06;60.23;100946.16;5022660;28;1744;-39
2021/07/28 08:11:51;;;;;;;;;;;;;;;22.02;60.10;100960.91;5020166;28;1823;-40
2021/07/28 08:14:17;;;;;;;;;;;;;;;22.07;60.45;100947.84;5017413;28;1524;-40
2021/07/28 08:16:44;;;;;;;;;;;;;;;22.07;60.13;100942.47;5020443;28;1801;-39
2021/07/28 08:19:10;;;;;;;;;;;;;;;22.13;60.33;100949.09;5026443;28;1762;-40
2021/07/28 08:21:37;;;;;;;;;;;;;;;22.24;60.34;100949.78;5014596;28;1906;-39
2021/07/28 08:24:03;;;;;;;;;;;;;;;22.43;60.24;100935.28;5023556;28;1095;-40
2021/07/28 08:26:31;;;;;;;;;;;;;;;22.56;60.04;100937.59;5016556;28;1785;-39
2021/07/28 08:28:58;;;;;;;;;;;;;;;22.73;59.94;100943.13;5022186;28;1939;-40
2021/07/28 08:31:24;;;;;;;;;;;;;;;22.75;60.11;100930.34;5021510;28;1760;-39
2021/07/28 08:33:51;;;;;;;;;;;;;;;22.73;60.63;100932.34;5019169;28;1787;-40
2021/07/28 08:36:17;;;;;;;;;;;;;;;22.58;61.57;100941.00;5022298;28;2260;-39
2021/07/28 08:38:44;;;;;;;;;;;;;;;22.44;61.89;100930.75;5015492;28;2072;-39
2021/07/28 08:41:10;;;;;;;;;;;;;;;22.43;62.38;100929.06;5018243;28;1887;-39
2021/07/28 08:43:39;;;;;;;;;;;;;;;22.40;62.78;100932.03;5018697;28;1759;-40
2021/07/28 08:46:07;;;;;;;;;;;;;;;22.43;62.79;100931.75;5022779;28;1845;-40
2021/07/28 08:48:34;;;;;;;;;;;;;;;22.37;63.23;100932.38;5018663;28;1844;-40
2021/07/28 08:51:02;;;;;;;;;;;;;;;22.35;63.48;100920.91;5013239;28;1838;-40
2021/07/28 08:53:28;;;;;;;;;;;;;;;22.39;63.48;100909.66;5022625;28;1896;-40
2021/07/28 08:55:55;;;;;;;;;;;;;;;22.39;63.77;100909.66;5027964;28;1733;-40
2021/07/28 08:58:23;;;;;;;;;;;;;;;22.40;63.53;100905.09;5018267;28;1689;-40
2021/07/28 09:00:51;;;;;;;;;;;;;;;22.43;63.75;100920.97;5015749;28;1902;-40
2021/07/28 09:03:17;;;;;;;;;;;;;;;22.45;64.27;100894.72;5011582;28;1411;-40
2021/07/28 09:05:44;;;;;;;;;;;;;;;22.48;64.87;100889.00;5020245;28;1811;-39
2021/07/28 09:08:22;;;;;;;;;;;;;;;22.59;64.78;100910.34;5021732;28;1946;-39
2021/07/28 09:10:49;;;;;;;;;;;;;;;22.69;64.50;100898.63;5019730;28;1842;-40
2021/07/28 09:13:16;;;;;;;;;;;;;;;22.81;65.56;100898.19;5020685;28;1702;-39
2021/07/28 09:15:43;;;;;;;;;;;;;;;22.96;65.78;100893.09;5017255;28;2176;-40
2021/07/28 09:18:31;;;;;;;;;;;;;;;23.24;66.07;100890.25;5022713;28;1729;-40
2021/07/28 09:20:57;;;;;;;;;;;;;;;23.38;65.96;100889.66;5022530;28;1976;-40
2021/07/28 09:23:32;;;;;;;;;;;;;;;23.45;65.81;100891.69;5022625;28;1831;-40
2021/07/28 09:26:00;;;;;;;;;;;;;;;23.47;66.42;100881.59;5016696;28;1838;-40
2021/07/28 09:28:26;;;;;;;;;;;;;;;23.53;65.82;100880.94;5017597;28;1660;-39
2021/07/28 09:30:52;;;;;;;;;;;;;;;23.61;66.18;100889.91;5018606;28;1768;-40
2021/07/28 09:33:19;;;;;;;;;;;;;;;23.65;65.88;100873.38;5016744;28;1861;-40
2021/07/28 09:36:04;;;;;;;;;;;;;;;23.39;65.76;100872.44;5018950;28;1690;-40
2021/07/28 09:38:32;;;;;;;;;;;;;;;22.98;65.75;100874.91;5014440;28;1920;-39
2021/07/28 09:41:11;;;;;;;;;;;;;;;22.77;65.87;100874.41;5015358;28;1969;-39
2021/07/28 09:43:43;;;;;;;;;;;;;;;22.69;65.61;100893.22;5014041;28;1735;-40
2021/07/28 09:46:20;;;;;;;;;;;;;;;22.51;65.68;100880.63;5020647;28;2078;-39
2021/07/28 09:48:46;;;;;;;;;;;;;;;22.44;65.80;100879.53;5019750;28;1795;-39
2021/07/28 09:51:21;;;;;;;;;;;;;;;22.37;65.57;100873.09;5028852;28;1079;-39
2021/07/28 09:53:52;;;;;;;;;;;;;;;22.34;65.07;100878.78;5021831;28;2174;-39
2021/07/28 09:56:23;;;;;;;;;;;;;;;22.23;65.25;100866.38;5018232;28;1778;-39
2021/07/28 09:58:50;;;;;;;;;;;;;;;22.22;64.90;100878.13;5020607;28;1155;-39
2021/07/28 10:01:17;;;;;;;;;;;;;;;22.14;65.31;100886.97;5012211;28;1916;-39
2021/07/28 10:03:43;;;;;;;;;;;;;;;22.14;64.88;100880.75;5014308;28;1831;-40
2021/07/28 10:06:10;;;;;;;;;;;;;;;22.06;64.83;100876.13;5024997;28;1517;-39
2021/07/28 10:08:36;;;;;;;;;;;;;;;22.10;64.29;100858.66;5024575;28;1613;-39
2021/07/28 10:11:04;;;;;;;;;;;;;;;22.23;63.94;100861.81;5017705;28;1879;-40
2021/07/28 10:13:31;;;;;;;;;;;;;;;22.28;63.75;100869.47;5021186;28;1771;-39
2021/07/28 10:15:57;;;;;;;;;;;;;;;22.26;63.68;100868.78;5021384;28;1940;-40
2021/07/28 10:18:24;;;;;;;;;;;;;;;22.36;62.99;100852.53;5019246;28;1734;-40
2021/07/28 10:20:52;;;;;;;;;;;;;;;22.57;62.96;100855.75;5014487;28;1623;-41
2021/07/28 10:23:18;;;;;;;;;;;;;;;22.76;63.86;100856.53;5019797;28;2004;-40
2021/07/28 10:25:45;;;;;;;;;;;;;;;22.96;65.11;100852.63;5015461;28;1497;-41
2021/07/28 10:28:17;;;;;;;;;;;;;;;23.10;66.20;100831.47;5026036;28;2361;-40
2021/07/28 10:30:45;;;;;;;;;;;;;;;23.26;66.47;100839.69;5022088;28;1747;-40
2021/07/28 10:33:24;;;;;;;;;;;;;;;23.35;66.80;100844.06;5026455;28;1818;-40
2021/07/28 10:35:50;;;;;;;;;;;;;;;23.44;67.54;100834.19;5016046;28;1879;-40
2021/07/28 10:38:20;;;;;;;;;;;;;;;23.53;66.98;100840.44;5021055;28;1753;-40
2021/07/28 10:40:58;;;;;;;;;;;;;;;23.54;66.89;100829.47;5021189;28;1841;-40
2021/07/28 10:43:26;;;;;;;;;;;;;;;23.57;67.13;100834.53;5018341;28;2339;-40
2021/07/28 10:45:54;;;;;;;;;;;;;;;23.57;66.42;100839.94;5020103;28;1797;-40
2021/07/28 10:48:39;;;;;;;;;;;;;;;23.22;66.52;100846.41;5015855;28;1704;-40
2021/07/28 10:51:05;;;;;;;;;;;;;;;22.81;66.71;100829.97;5019456;28;1619;-40
2021/07/28 10:53:46;;;;;;;;;;;;;;;22.67;66.48;100830.53;5024410;28;1738;-40
2021/07/28 10:56:13;;;;;;;;;;;;;;;22.49;66.46;100842.19;5032618;28;1769;-40
2021/07/28 10:58:40;;;;;;;;;;;;;;;22.43;66.13;100856.31;5024502;28;1710;-40
2021/07/28 11:01:07;;;;;;;;;;;;;;;22.31;66.48;100842.22;5023377;28;1920;-39
2021/07/28 11:03:35;;;;;;;;;;;;;;;22.31;66.24;100830.63;5013683;28;1906;-40
2021/07/28 11:06:23;;;;;;;;;;;;;;;22.22;65.57;100838.59;5017405;28;1496;-40
2021/07/28 11:08:50;;;;;;;;;;;;;;;22.21;65.79;100811.81;5026351;28;1519;-40
2021/07/28 11:11:21;;;;;;;;;;;;;;;22.21;65.58;100826.13;5019689;28;1908;-40
2021/07/28 11:13:49;;;;;;;;;;;;;;;22.26;64.96;100839.13;5025439;28;2011;-40
2021/07/28 11:16:16;;;;;;;;;;;;;;;22.10;65.34;100823.66;5015359;28;1755;-40
2021/07/28 11:18:44;;;;;;;;;;;;;;;22.13;64.94;100817.97;5018086;28;1791;-40
2021/07/28 11:21:11;;;;;;;;;;;;;;;22.18;64.82;100826.44;5014819;28;1072;-40
2021/07/28 11:23:45;;;;;;;;;;;;;;;22.15;64.41;100815.97;5018964;28;1910;-39
2021/07/28 11:26:17;;;;;;;;;;;;;;;22.19;64.34;100821.91;5015308;28;1917;-39
2021/07/28 11:28:44;;;;;;;;;;;;;;;22.17;63.93;100823.91;5018539;28;1747;-40
2021/07/28 11:31:12;;;;;;;;;;;;;;;22.15;64.02;100820.50;5021510;28;1317;-39
2021/07/28 11:33:39;;;;;;;;;;;;;;;22.14;63.82;100808.88;5021265;28;1492;-39
2021/07/28 11:36:06;;;;;;;;;;;;;;;22.16;63.55;100814.97;5026689;28;2028;-40
2021/07/28 11:38:33;;;;;;;;;;;;;;;22.20;63.68;100804.72;5019609;28;1842;-40
2021/07/28 11:41:01;;;;;;;;;;;;;;;22.09;63.81;100813.91;5023455;28;1748;-39
2021/07/28 11:43:28;;;;;;;;;;;;;;;22.08;63.63;100805.97;5015937;28;1977;-39
2021/07/28 11:45:55;;;;;;;;;;;;;;;22.11;63.56;100798.44;5019524;28;2071;-40
2021/07/28 11:48:29;;;;;;;;;;;;;;;22.11;63.31;100793.03;5022130;28;1731;-40
2021/07/28 11:50:55;;;;;;;;;;;;;;;22.13;63.07;100790.19;5020384;28;1716;-40
2021/07/28 11:53:23;;;;;;;;;;;;;;;22.15;63.13;100793.59;5019144;28;1651;-39
2021/07/28 11:55:50;;;;;;;;;;;;;;;22.12;63.36;100800.09;5024311;28;1090;-40
2021/07/28 11:58:17;;;;;;;;;;;;;;;22.17;63.38;100789.72;5015122;28;2021;-40
2021/07/28 12:00:46;;;;;;;;;;;;;;;22.11;63.18;100781.44;5019873;28;1522;-40
2021/07/28 12:03:23;;;;;;;;;;;;;;;22.08;63.33;100787.94;5018348;28;1906;-39
2021/07/28 12:06:01;;;;;;;;;;;;;;;22.08;62.72;100787.94;5024810;28;1744;-40
2021/07/28 12:08:34;;;;;;;;;;;;;;;22.02;62.30;100767.03;5016275;28;1716;-39
2021/07/28 12:11:04;;;;;;;;;;;;;;;22.06;62.30;100776.50;5017358;28;1748;-39
2021/07/28 12:13:41;;;;;;;;;;;;;;;21.99;62.08;100778.13;5017482;28;1898;-40
2021/07/28 12:16:07;;;;;;;;;;;;;;;21.97;62.31;100772.06;5022974;28;1754;-40
2021/07/28 12:18:40;;;;;;;;;;;;;;;21.90;62.08;100773.66;5017696;28;1800;-40
2021/07/28 12:21:08;;;;;;;;;;;;;;;21.91;61.75;100780.75;5016463;28;1600;-40
2021/07/28 12:23:35;;;;;;;;;;;;;;;21.90;61.78;100757.50;5017394;28;1918;-39
2021/07/28 12:26:01;;;;;;;;;;;;;;;21.90;62.04;100762.88;5020437;28;1682;-40
2021/07/28 12:28:43;;;;;;;;;;;;;;;21.85;62.02;100749.91;5022135;28;1055;-39
2021/07/28 12:31:09;;;;;;;;;;;;;;;21.94;61.95;100762.41;5019890;28;1916;-39
2021/07/28 12:33:37;;;;;;;;;;;;;;;21.87;61.51;100755.16;5017195;28;2672;-39
2021/07/28 12:36:04;;;;;;;;;;;;;;;21.92;61.58;100760.88;5022082;28;1875;-40
2021/07/28 12:38:32;;;;;;;;;;;;;;;21.90;61.20;100755.66;5016125;28;1919;-39
2021/07/28 12:40:59;;;;;;;;;;;;;;;21.85;61.51;100750.75;5020910;28;1954;-39
2021/07/28 12:43:27;;;;;;;;;;;;;;;21.82;61.83;100748.34;5017297;28;1981;-39
2021/07/28 12:45:54;;;;;;;;;;;;;;;21.90;61.56;100762.88;5020375;28;1795;-39
2021/07/28 12:48:21;;;;;;;;;;;;;;;21.77;61.40;100737.22;5014908;28;1977;-39
2021/07/28 12:50:48;;;;;;;;;;;;;;;21.75;61.35;100739.22;5031018;28;1094;-39
2021/07/28 12:53:14;;;;;;;;;;;;;;;21.84;61.32;100730.22;5014593;28;1906;-40
2021/07/28 12:55:42;;;;;;;;;;;;;;;21.82;61.07;100734.88;5015386;28;1316;-40
2021/07/28 12:58:09;;;;;;;;;;;;;;;21.73;61.46;100741.22;5020567;28;1798;-40
2021/07/28 13:00:35;;;;;;;;;;;;;;;21.74;61.29;100721.34;5025311;28;1841;-39
2021/07/28 13:03:04;;;;;;;;;;;;;;;21.74;60.90;100725.91;5012473;28;1989;-39
2021/07/28 13:05:30;;;;;;;;;;;;;;;21.79;60.83;100724.44;5021867;28;1757;-40
2021/07/28 13:08:03;;;;;;;;;;;;;;;21.80;61.22;100730.66;5020180;28;1747;-39
2021/07/28 13:10:29;;;;;;;;;;;;;;;21.75;61.31;100725.75;5019466;28;1888;-40
2021/07/28 13:12:57;;;;;;;;;;;;;;;21.77;61.31;100721.06;5015969;28;1629;-40
2021/07/28 13:15:24;;;;;;;;;;;;;;;21.76;60.67;100715.81;5021657;28;1669;-40
2021/07/28 13:17:51;;;;;;;;;;;;;;;21.70;60.87;100709.22;5020225;28;1846;-40
2021/07/28 13:20:17;;;;;;;;;;;;;;;22.00;60.97;100715.19;5015206;28;1155;-39
2021/07/28 13:22:44;;;;;;;;;;;;;;;22.39;59.92;100722.91;5018028;28;1975;-40
2021/07/28 13:25:11;;;;;;;;;;;;;;;22.74;59.03;100691.41;5015469;28;1657;-41
2021/07/28 13:27:38;;;;;;;;;;;;;;;23.01;58.23;100687.63;5017420;28;1811;-40
2021/07/28 13:30:07;;;;;;;;;;;;;;;23.26;58.00;100687.72;5020438;28;1768;-40
2021/07/28 13:32:34;;;;;;;;;;;;;;;23.47;58.04;100687.25;5015858;28;1733;-40
2021/07/28 13:35:00;;;;;;;;;;;;;;;23.62;57.42;100686.44;5018465;28;1821;-40
2021/07/28 13:37:27;;;;;;;;;;;;;;;23.72;58.10;100683.56;5019411;28;1909;-40
2021/07/28 13:39:54;;;;;;;;;;;;;;;23.85;57.58;100701.97;5015298;28;1802;-40
2021/07/28 13:42:20;;;;;;;;;;;;;;;23.87;57.96;100672.94;5023350;28;1928;-40
2021/07/28 13:44:47;;;;;;;;;;;;;;;23.92;57.82;100675.16;5018320;28;1710;-40
2021/07/28 13:47:15;;;;;;;;;;;;;;;23.99;57.93;100684.25;5017113;28;1803;-41
2021/07/28 13:49:41;;;;;;;;;;;;;;;24.00;57.47;100683.25;5021540;28;1568;-40
2021/07/28 13:52:08;;;;;;;;;;;;;;;24.05;58.38;100682.72;5018102;28;1804;-41
2021/07/28 13:54:34;;;;;;;;;;;;;;;24.09;58.18;100684.91;5020629;28;1844;-39
2021/07/28 13:57:15;;;;;;;;;;;;;;;24.10;59.25;100683.91;5023797;28;1877;-40
2021/07/28 13:59:41;;;;;;;;;;;;;;;24.12;58.93;100689.16;5030002;28;1816;-41
2021/07/28 14:02:08;;;;;;;;;;;;;;;24.13;58.69;100688.97;5024682;28;1710;-40
2021/07/28 14:04:36;;;;;;;;;;;;;;;24.17;59.04;100693.03;5020057;28;1903;-39
2021/07/28 14:07:02;;;;;;;;;;;;;;;24.18;58.94;100674.94;5025274;28;1922;-39
2021/07/28 14:09:29;;;;;;;;;;;;;;;24.21;58.48;100685.38;5020995;28;2482;-40
2021/07/28 14:11:56;;;;;;;;;;;;;;;24.25;58.98;100677.78;5020442;28;1871;-39
2021/07/28 14:14:22;;;;;;;;;;;;;;;24.28;58.94;100685.56;5025698;28;1803;-40
2021/07/28 14:16:49;;;;;;;;;;;;;;;24.28;59.15;100680.16;5027223;28;1936;-40
2021/07/28 14:19:18;;;;;;;;;;;;;;;24.26;59.16;100677.63;5027987;28;1897;-40
2021/07/28 14:21:46;;;;;;;;;;;;;;;24.26;59.13;100661.41;5026351;28;1870;-39
2021/07/28 14:24:13;;;;;;;;;;;;;;;24.32;59.72;100670.69;5024846;28;1961;-40
2021/07/28 14:26:39;;;;;;;;;;;;;;;24.37;59.54;100671.00;5024598;28;1946;-39
2021/07/28 14:29:06;;;;;;;;;;;;;;;24.32;59.37;100663.41;5025730;28;1877;-40
2021/07/28 14:31:33;;;;;;;;;;;;;;;24.36;59.70;100661.22;5027119;28;1734;-40
2021/07/28 14:34:00;;;;;;;;;;;;;;;24.36;59.31;100645.00;5024487;28;1951;-40
2021/07/28 14:36:26;;;;;;;;;;;;;;;24.39;59.93;100659.00;5027168;28;1626;-40
2021/07/28 14:38:54;;;;;;;;;;;;;;;24.45;59.33;100659.31;5022541;28;1952;-40
2021/07/28 14:41:21;;;;;;;;;;;;;;;24.44;59.45;100636.03;5031586;28;2103;-40
2021/07/28 14:43:48;;;;;;;;;;;;;;;24.47;59.82;100641.94;5017773;28;1902;-40
2021/07/28 14:46:14;;;;;;;;;;;;;;;24.50;59.58;100636.19;5020048;28;1792;-39
2021/07/28 14:48:41;;;;;;;;;;;;;;;24.54;59.95;100620.47;5026040;28;1794;-40
2021/07/28 14:51:09;;;;;;;;;;;;;;;24.60;60.72;100647.63;5020743;28;1828;-40
2021/07/28 14:53:35;;;;;;;;;;;;;;;24.18;62.85;100637.94;5019679;28;1598;-39
2021/07/28 14:56:03;;;;;;;;;;;;;;;23.62;61.32;100642.41;5018561;28;1831;-40
2021/07/28 14:58:29;;;;;;;;;;;;;;;23.08;61.03;100640.16;5022520;28;1543;-39
2021/07/28 15:00:56;;;;;;;;;;;;;;;22.64;60.97;100649.25;5019145;28;1860;-40
2021/07/28 15:03:22;;;;;;;;;;;;;;;22.50;60.59;100636.41;5016271;28;1969;-39
2021/07/28 15:05:49;;;;;;;;;;;;;;;22.33;60.60;100650.81;5026247;28;1705;-39
2021/07/28 15:08:16;;;;;;;;;;;;;;;22.26;60.77;100638.97;5017877;28;1880;-39
2021/07/28 15:10:42;;;;;;;;;;;;;;;22.28;60.93;100639.66;5020814;28;1732;-39
2021/07/28 15:13:11;;;;;;;;;;;;;;;22.18;60.22;100619.06;5023109;28;1728;-39
2021/07/28 15:15:37;;;;;;;;;;;;;;;22.07;60.20;100635.47;5024798;28;1771;-39
2021/07/28 15:18:04;;;;;;;;;;;;;;;21.78;60.10;100620.44;5029250;28;1697;-39
2021/07/28 15:20:30;;;;;;;;;;;;;;;21.62;60.05;100631.94;5026059;28;1696;-39
2021/07/28 15:22:58;;;;;;;;;;;;;;;21.56;59.70;100629.03;5022811;28;1910;-39
2021/07/28 15:25:24;;;;;;;;;;;;;;;21.92;60.44;100631.66;5023684;28;1551;-40
2021/07/28 15:27:52;;;;;;;;;;;;;;;22.28;60.45;100615.41;5026315;28;1746;-39
2021/07/28 15:30:20;;;;;;;;;;;;;;;22.53;61.14;100633.38;5022870;28;1625;-39
2021/07/28 15:32:46;;;;;;;;;;;;;;;22.70;60.92;100620.81;5024043;28;1711;-39
2021/07/28 15:35:14;;;;;;;;;;;;;;;22.80;60.60;100615.25;5026765;28;1522;-40
2021/07/28 15:37:42;;;;;;;;;;;;;;;22.94;60.84;100609.25;5023638;28;1772;-40
2021/07/28 15:40:10;;;;;;;;;;;;;;;22.95;61.28;100612.78;5024492;28;1724;-40
2021/07/28 15:42:38;;;;;;;;;;;;;;;23.01;60.89;100595.94;5024214;28;1811;-39
2021/07/28 15:45:05;;;;;;;;;;;;;;;23.05;61.34;100604.59;5024988;28;1981;-40
2021/07/28 15:47:34;;;;;;;;;;;;;;;23.00;61.70;100589.72;5024226;28;1736;-40
2021/07/28 15:50:00;;;;;;;;;;;;;;;23.08;62.02;100590.75;5026975;28;1541;-40
2021/07/28 15:52:26;;;;;;;;;;;;;;;23.09;62.60;100593.28;5018172;28;1864;-40
2021/07/28 15:54:53;;;;;;;;;;;;;;;23.15;62.48;100599.88;5023518;28;1006;-40
2021/07/28 15:57:19;;;;;;;;;;;;;;;23.15;62.41;100597.16;5017626;28;1759;-40